Time;durP1;ratioP1;P1;durP2;ratioP2;P2;SDS_P1;SDS_P2;PMS_P1;PMS_P2;Temp;Humidity;BMP_temperature;BMP_pressure;BME280_temperature;BME280_humidity;BME280_pressure;Samples;Min_cycle;Max_cycle;Signal;HPM_P1;HPM_P2
2023/12/18 00:01:00;;;;;;;7.45;2.80;;;;;;;;;;5001495;28;20113;-82
2023/12/18 00:03:29;;;;;;;5.22;2.40;;;;;;;;;;5006885;28;20045;-81
2023/12/18 00:05:56;;;;;;;3.88;2.30;;;;;;;;;;5032487;28;20049;-82
2023/12/18 00:08:23;;;;;;;6.93;2.72;;;;;;;;;;5043138;28;20024;-80
2023/12/18 00:10:50;;;;;;;3.88;1.90;;;;;;;;;;5059896;28;20046;-82
2023/12/18 00:13:16;;;;;;;6.32;2.30;;;;;;;;;;5043280;28;20056;-82
2023/12/18 00:15:43;;;;;;;6.75;2.90;;;;;;;;;;5060760;28;20032;-81
2023/12/18 00:18:10;;;;;;;6.40;2.53;;;;;;;;;;5034371;28;20038;-82
2023/12/18 00:20:37;;;;;;;5.80;2.42;;;;;;;;;;5037388;28;20041;-82
2023/12/18 00:23:04;;;;;;;4.18;2.45;;;;;;;;;;5019815;28;20049;-81
2023/12/18 00:25:31;;;;;;;5.30;2.60;;;;;;;;;;5036059;28;20045;-82
2023/12/18 00:27:58;;;;;;;3.70;2.30;;;;;;;;;;5035931;28;20424;-82
2023/12/18 00:30:24;;;;;;;7.13;2.75;;;;;;;;;;5017892;28;20480;-81
2023/12/18 00:32:51;;;;;;;5.28;2.90;;;;;;;;;;5018126;28;20124;-82
2023/12/18 00:35:18;;;;;;;4.40;2.63;;;;;;;;;;5017614;28;20041;-82
2023/12/18 00:37:45;;;;;;;8.07;3.20;;;;;;;;;;5018144;28;20131;-82
2023/12/18 00:40:12;;;;;;;4.38;2.85;;;;;;;;;;5017679;28;20536;-82
2023/12/18 00:42:38;;;;;;;6.75;3.58;;;;;;;;;;5034379;28;20049;-83
2023/12/18 00:45:06;;;;;;;7.43;4.10;;;;;;;;;;5017428;28;20069;-81
2023/12/18 00:47:32;;;;;;;11.40;3.13;;;;;;;;;;5034514;28;20041;-82
2023/12/18 00:49:59;;;;;;;5.55;2.80;;;;;;;;;;5017977;28;20049;-82
2023/12/18 00:52:28;;;;;;;4.88;2.60;;;;;;;;;;5017393;28;20041;-82
2023/12/18 00:54:55;;;;;;;6.30;2.78;;;;;;;;;;5034240;28;20046;-81
2023/12/18 00:57:21;;;;;;;5.47;2.25;;;;;;;;;;5017229;28;20069;-82
2023/12/18 00:59:48;;;;;;;8.40;2.67;;;;;;;;;;5034221;28;20046;-82
2023/12/18 01:02:15;;;;;;;7.07;2.70;;;;;;;;;;5017114;28;20365;-82
2023/12/18 01:04:42;;;;;;;4.28;2.45;;;;;;;;;;5033895;28;20058;-82
2023/12/18 01:07:09;;;;;;;7.57;2.83;;;;;;;;;;5016537;28;20100;-83
2023/12/18 01:09:36;;;;;;;3.58;2.22;;;;;;;;;;5013583;28;20053;-82
2023/12/18 01:12:03;;;;;;;6.82;2.55;;;;;;;;;;4997965;28;20049;-82
2023/12/18 01:14:30;;;;;;;4.55;2.60;;;;;;;;;;4997709;28;20129;-81
2023/12/18 01:16:57;;;;;;;4.47;2.25;;;;;;;;;;4999071;28;20049;-82
2023/12/18 01:19:24;;;;;;;6.95;2.72;;;;;;;;;;5001441;28;20078;-81
2023/12/18 01:21:51;;;;;;;6.95;2.35;;;;;;;;;;5009159;28;20037;-81
2023/12/18 01:24:18;;;;;;;8.45;2.72;;;;;;;;;;5021357;28;20045;-81
2023/12/18 01:26:45;;;;;;;4.82;2.17;;;;;;;;;;5046253;28;20057;-83
2023/12/18 01:29:12;;;;;;;6.85;2.67;;;;;;;;;;5033845;28;20046;-81
2023/12/18 01:31:38;;;;;;;5.80;2.33;;;;;;;;;;5018644;28;20080;-82
2023/12/18 01:34:05;;;;;;;6.03;2.13;;;;;;;;;;5033636;28;20041;-81
2023/12/18 01:36:32;;;;;;;5.10;2.60;;;;;;;;;;5017102;28;20537;-84
2023/12/18 01:38:59;;;;;;;4.15;2.50;;;;;;;;;;5017162;28;20416;-83
2023/12/18 01:41:26;;;;;;;10.38;2.60;;;;;;;;;;5032834;28;20045;-84
2023/12/18 01:43:53;;;;;;;4.13;2.30;;;;;;;;;;5033414;28;20038;-83
2023/12/18 01:46:24;;;;;;;4.40;2.30;;;;;;;;;;5016579;28;20046;-83
2023/12/18 01:48:51;;;;;;;5.18;2.20;;;;;;;;;;5016829;28;20049;-82
2023/12/18 01:51:19;;;;;;;4.82;2.78;;;;;;;;;;5016463;28;20038;-83
2023/12/18 01:53:48;;;;;;;7.22;2.75;;;;;;;;;;5016860;28;20132;-83
2023/12/18 01:56:18;;;;;;;4.97;2.65;;;;;;;;;;5016141;28;20049;-83
2023/12/18 01:58:45;;;;;;;8.18;2.70;;;;;;;;;;5016563;28;20116;-83
2023/12/18 02:01:12;;;;;;;6.28;3.00;;;;;;;;;;5015918;28;20332;-82
2023/12/18 02:03:40;;;;;;;5.63;2.70;;;;;;;;;;5016539;28;20041;-82
2023/12/18 02:06:07;;;;;;;4.60;2.33;;;;;;;;;;5015939;28;20054;-82
2023/12/18 02:08:34;;;;;;;5.43;2.25;;;;;;;;;;5032906;28;20068;-82
2023/12/18 02:11:02;;;;;;;5.13;2.00;;;;;;;;;;5012644;28;20060;-82
2023/12/18 02:13:29;;;;;;;2.13;1.55;;;;;;;;;;4996321;28;20065;-82
2023/12/18 02:15:57;;;;;;;4.60;2.05;;;;;;;;;;5012930;28;20042;-83
2023/12/18 02:18:24;;;;;;;3.53;2.20;;;;;;;;;;5012211;28;20069;-81
2023/12/18 02:20:51;;;;;;;7.05;2.40;;;;;;;;;;5012754;28;20045;-83
2023/12/18 02:23:18;;;;;;;4.43;2.33;;;;;;;;;;5015169;28;20045;-82
2023/12/18 02:25:45;;;;;;;5.32;1.98;;;;;;;;;;5016199;28;20041;-82
2023/12/18 02:28:12;;;;;;;4.60;1.85;;;;;;;;;;5015712;28;20061;-81
2023/12/18 02:30:39;;;;;;;3.25;1.70;;;;;;;;;;5016217;28;20045;-82
2023/12/18 02:33:06;;;;;;;4.90;1.70;;;;;;;;;;5015438;28;20041;-82
2023/12/18 02:35:33;;;;;;;2.55;1.55;;;;;;;;;;5016033;28;20045;-82
2023/12/18 02:38:00;;;;;;;4.82;2.20;;;;;;;;;;5032333;28;20050;-81
2023/12/18 02:40:27;;;;;;;5.85;1.98;;;;;;;;;;5015285;28;20049;-83
2023/12/18 02:42:54;;;;;;;6.03;2.03;;;;;;;;;;5032572;28;20056;-81
2023/12/18 02:45:21;;;;;;;4.95;1.95;;;;;;;;;;5015244;28;20065;-82
2023/12/18 02:47:48;;;;;;;3.70;1.90;;;;;;;;;;5032195;28;20440;-83
2023/12/18 02:50:15;;;;;;;3.45;1.45;;;;;;;;;;5031635;28;20128;-83
2023/12/18 02:52:42;;;;;;;5.97;2.50;;;;;;;;;;5015635;28;20132;-82
2023/12/18 02:55:11;;;;;;;8.48;2.10;;;;;;;;;;5014874;28;20044;-82
2023/12/18 02:57:38;;;;;;;;;;;;;;;;;;5016261;28;20400;-81
2023/12/18 03:00:07;;;;;;;4.65;1.85;;;;;;;;;;5031601;28;19925;-81
2023/12/18 03:02:34;;;;;;;6.47;2.17;;;;;;;;;;5015660;28;20041;-82
2023/12/18 03:05:00;;;;;;;5.32;1.65;;;;;;;;;;5015558;28;20136;-81
2023/12/18 03:07:27;;;;;;;2.92;1.60;;;;;;;;;;5031627;28;20060;-82
2023/12/18 03:09:54;;;;;;;5.55;1.98;;;;;;;;;;5012304;28;20125;-81
2023/12/18 03:12:21;;;;;;;5.57;2.20;;;;;;;;;;5008313;28;20050;-82
2023/12/18 03:14:48;;;;;;;4.47;1.58;;;;;;;;;;5011971;28;20046;-83
2023/12/18 03:17:15;;;;;;;3.55;1.77;;;;;;;;;;5008921;28;20071;-84
2023/12/18 03:19:41;;;;;;;4.72;1.85;;;;;;;;;;5012469;28;20046;-82
2023/12/18 03:22:08;;;;;;;4.75;1.90;;;;;;;;;;5011538;28;20074;-83
2023/12/18 03:24:38;;;;;;;5.65;2.15;;;;;;;;;;5025351;28;20041;-83
2023/12/18 03:27:06;;;;;;;4.93;2.10;;;;;;;;;;5014904;28;20037;-83
2023/12/18 03:29:33;;;;;;;5.15;1.95;;;;;;;;;;5015268;28;20053;-82
2023/12/18 03:32:00;;;;;;;4.35;1.48;;;;;;;;;;5014666;28;20037;-83
2023/12/18 03:34:27;;;;;;;3.95;1.95;;;;;;;;;;5014664;28;20550;-83
2023/12/18 03:36:54;;;;;;;4.88;1.33;;;;;;;;;;5015308;28;20080;-82
2023/12/18 03:39:21;;;;;;;3.90;1.73;;;;;;;;;;5030938;28;20063;-83
2023/12/18 03:41:47;;;;;;;2.55;1.45;;;;;;;;;;5015101;28;20045;-83
2023/12/18 03:44:14;;;;;;;4.97;1.30;;;;;;;;;;5014875;28;20103;-83
2023/12/18 03:46:41;;;;;;;4.93;1.83;;;;;;;;;;5031388;28;20049;-83
2023/12/18 03:49:08;;;;;;;6.32;1.40;;;;;;;;;;5014542;28;20060;-82
2023/12/18 03:51:35;;;;;;;4.13;1.13;;;;;;;;;;5015171;28;20423;-82
2023/12/18 03:54:02;;;;;;;5.00;2.28;;;;;;;;;;5031220;28;20053;-81
2023/12/18 03:56:28;;;;;;;2.97;1.20;;;;;;;;;;5014157;28;20051;-82
2023/12/18 03:58:55;;;;;;;5.00;1.50;;;;;;;;;;5015052;28;20443;-82
2023/12/18 04:01:22;;;;;;;6.00;1.17;;;;;;;;;;5014397;28;20042;-83
2023/12/18 04:03:49;;;;;;;3.33;1.17;;;;;;;;;;5014791;28;20061;-82
2023/12/18 04:06:15;;;;;;;7.38;1.27;;;;;;;;;;5031947;28;20053;-82
2023/12/18 04:08:42;;;;;;;3.28;1.20;;;;;;;;;;5014938;28;20064;-82
2023/12/18 04:11:16;;;;;;;4.95;1.27;;;;;;;;;;5010786;28;20096;-83
2023/12/18 04:13:43;;;;;;;5.97;1.60;;;;;;;;;;4995355;28;20046;-83
2023/12/18 04:16:10;;;;;;;5.28;1.00;;;;;;;;;;5010598;28;20396;-83
2023/12/18 04:18:37;;;;;;;4.03;1.00;;;;;;;;;;5011283;28;20467;-82
2023/12/18 04:21:04;;;;;;;4.18;1.00;;;;;;;;;;5027265;28;20117;-81
2023/12/18 04:23:31;;;;;;;3.17;1.27;;;;;;;;;;5014615;28;20064;-82
2023/12/18 04:25:58;;;;;;;2.65;0.90;;;;;;;;;;5014894;28;20092;-82
2023/12/18 04:28:24;;;;;;;4.93;1.42;;;;;;;;;;5014324;28;20433;-83
2023/12/18 04:30:51;;;;;;;5.15;1.00;;;;;;;;;;5014594;28;20047;-83
2023/12/18 04:33:18;;;;;;;5.00;1.00;;;;;;;;;;5014237;28;20083;-83
2023/12/18 04:35:45;;;;;;;3.55;1.02;;;;;;;;;;5031007;28;20053;-82
2023/12/18 04:38:12;;;;;;;5.88;1.30;;;;;;;;;;5014167;28;20048;-83
2023/12/18 04:40:39;;;;;;;2.55;0.85;;;;;;;;;;5032247;28;20136;-81
2023/12/18 04:43:06;;;;;;;3.33;1.20;;;;;;;;;;5034049;28;20041;-81
2023/12/18 04:45:32;;;;;;;6.85;3.10;;;;;;;;;;5018039;28;20396;-82
2023/12/18 04:47:59;;;;;;;5.93;2.83;;;;;;;;;;5034656;28;20045;-83
2023/12/18 04:50:26;;;;;;;5.93;2.42;;;;;;;;;;5033912;28;20041;-83
2023/12/18 04:52:53;;;;;;;8.75;4.82;;;;;;;;;;5017913;28;20091;-81
2023/12/18 04:55:20;;;;;;;4.50;1.63;;;;;;;;;;5013955;28;20042;-82
2023/12/18 04:57:46;;;;;;;11.32;3.95;;;;;;;;;;5014612;28;20137;-83
2023/12/18 05:00:13;;;;;;;10.05;3.00;;;;;;;;;;5013732;28;20073;-82
2023/12/18 05:02:40;;;;;;;13.80;4.28;;;;;;;;;;5031029;28;20469;-82
2023/12/18 05:05:07;;;;;;;10.63;5.35;;;;;;;;;;4997401;28;20441;-82
2023/12/18 05:07:34;;;;;;;20.50;8.52;;;;;;;;;;4998432;28;20064;-82
2023/12/18 05:10:02;;;;;;;18.73;7.38;;;;;;;;;;5021830;28;20125;-82
2023/12/18 05:12:28;;;;;;;7.78;3.22;;;;;;;;;;5017432;28;20041;-82
2023/12/18 05:14:55;;;;;;;14.93;6.85;;;;;;;;;;5017802;28;20423;-83
2023/12/18 05:17:24;;;;;;;24.00;11.40;;;;;;;;;;5017406;28;20049;-82
2023/12/18 05:19:51;;;;;;;32.13;15.07;;;;;;;;;;5017362;28;20042;-83
2023/12/18 05:22:17;;;;;;;11.82;5.00;;;;;;;;;;5016899;28;20488;-83
2023/12/18 05:24:44;;;;;;;13.05;7.45;;;;;;;;;;5017186;28;20052;-83
2023/12/18 05:27:11;;;;;;;13.07;7.03;;;;;;;;;;5033265;28;20100;-82
2023/12/18 05:29:38;;;;;;;14.65;8.05;;;;;;;;;;5017334;28;20079;-82
2023/12/18 05:32:05;;;;;;;30.23;15.50;;;;;;;;;;5016950;28;20053;-81
2023/12/18 05:34:32;;;;;;;20.02;10.45;;;;;;;;;;5033519;28;20411;-82
2023/12/18 05:36:59;;;;;;;55.08;22.08;;;;;;;;;;5017348;28;20079;-83
2023/12/18 05:39:26;;;;;;;19.83;11.35;;;;;;;;;;5016437;28;20072;-83
2023/12/18 05:41:52;;;;;;;24.73;14.88;;;;;;;;;;5016927;28;20037;-83
2023/12/18 05:44:19;;;;;;;14.45;8.35;;;;;;;;;;5016087;28;20049;-83
2023/12/18 05:46:46;;;;;;;5.63;3.60;;;;;;;;;;5032456;28;20128;-83
2023/12/18 05:49:13;;;;;;;7.22;3.17;;;;;;;;;;5031588;28;20042;-83
2023/12/18 05:51:40;;;;;;;9.45;6.15;;;;;;;;;;5013124;28;20487;-84
2023/12/18 05:54:06;;;;;;;8.80;4.72;;;;;;;;;;5006576;28;20412;-82
2023/12/18 05:56:33;;;;;;;5.65;2.70;;;;;;;;;;5024873;28;20049;-82
2023/12/18 05:59:00;;;;;;;9.90;4.55;;;;;;;;;;5032972;28;20042;-82
2023/12/18 06:01:27;;;;;;;8.68;2.58;;;;;;;;;;5029643;28;20042;-82
2023/12/18 06:03:54;;;;;;;11.35;6.20;;;;;;;;;;5032363;28;20508;-81
2023/12/18 06:06:21;;;;;;;9.43;3.60;;;;;;;;;;5038452;28;20049;-82
2023/12/18 06:08:51;;;;;;;3.97;2.25;;;;;;;;;;4999873;28;20053;-87
2023/12/18 06:11:18;;;;;;;3.35;1.65;;;;;;;;;;5018925;28;20095;-82
2023/12/18 06:13:45;;;;;;;5.80;3.03;;;;;;;;;;5010145;28;20060;-82
2023/12/18 06:16:12;;;;;;;7.18;2.08;;;;;;;;;;5010781;28;20065;-82
2023/12/18 06:18:38;;;;;;;6.13;2.22;;;;;;;;;;4998572;28;20034;-81
2023/12/18 06:21:06;;;;;;;7.63;3.85;;;;;;;;;;5002049;28;20045;-81
2023/12/18 06:23:33;;;;;;;4.90;1.98;;;;;;;;;;5015920;28;20045;-82
2023/12/18 06:26:00;;;;;;;7.50;3.20;;;;;;;;;;5014320;28;20046;-84
2023/12/18 06:28:29;;;;;;;8.50;2.88;;;;;;;;;;5014324;28;20061;-82
2023/12/18 06:30:56;;;;;;;6.38;1.90;;;;;;;;;;5014182;28;20045;-82
2023/12/18 06:33:23;;;;;;;5.95;3.15;;;;;;;;;;5013267;28;20477;-82
2023/12/18 06:35:50;;;;;;;8.32;4.00;;;;;;;;;;5014059;28;20052;-83
2023/12/18 06:38:17;;;;;;;5.68;3.17;;;;;;;;;;5013423;28;20048;-83
2023/12/18 06:40:43;;;;;;;9.43;2.28;;;;;;;;;;5013764;28;20224;-82
2023/12/18 06:43:10;;;;;;;8.07;2.15;;;;;;;;;;5032490;28;20045;-81
2023/12/18 06:45:37;;;;;;;11.15;5.85;;;;;;;;;;5015830;28;20045;-82
2023/12/18 06:48:04;;;;;;;12.75;6.63;;;;;;;;;;5032225;28;20077;-81
2023/12/18 06:50:31;;;;;;;6.03;3.10;;;;;;;;;;5016113;28;20045;-84
2023/12/18 06:53:00;;;;;;;8.45;2.65;;;;;;;;;;5016165;28;20045;-82
2023/12/18 06:55:28;;;;;;;5.20;1.80;;;;;;;;;;5031592;28;20095;-82
2023/12/18 06:57:55;;;;;;;5.47;1.60;;;;;;;;;;5015587;28;20560;-82
2023/12/18 07:00:22;;;;;;;4.53;1.30;;;;;;;;;;5031630;28;20514;-83
2023/12/18 07:03:06;;;;;;;5.88;1.33;;;;;;;;;;5018897;28;20128;-81
2023/12/18 07:05:33;;;;;;;6.20;2.10;;;;;;;;;;5001846;28;20065;-82
2023/12/18 07:08:00;;;;;;;6.18;1.88;;;;;;;;;;5053277;28;20041;-81
2023/12/18 07:10:27;;;;;;;5.72;2.10;;;;;;;;;;5017436;28;20044;-83
2023/12/18 07:12:54;;;;;;;5.25;1.58;;;;;;;;;;5018596;28;20056;-82
2023/12/18 07:15:23;;;;;;;4.95;1.73;;;;;;;;;;5017096;28;20357;-82
2023/12/18 07:17:52;;;;;;;8.15;1.75;;;;;;;;;;5033760;28;20111;-81
2023/12/18 07:20:19;;;;;;;6.78;1.70;;;;;;;;;;5017722;28;20045;-82
2023/12/18 07:22:45;;;;;;;4.13;1.63;;;;;;;;;;5033876;28;20041;-82
2023/12/18 07:25:12;;;;;;;6.18;1.80;;;;;;;;;;5017190;28;20415;-84
2023/12/18 07:27:39;;;;;;;6.35;1.67;;;;;;;;;;5018251;28;20480;-83
2023/12/18 07:30:06;;;;;;;4.22;1.33;;;;;;;;;;5017832;28;20453;-83
2023/12/18 07:32:33;;;;;;;3.97;1.40;;;;;;;;;;5018428;28;20136;-82
2023/12/18 07:35:00;;;;;;;3.13;1.42;;;;;;;;;;5017898;28;20472;-83
2023/12/18 07:37:31;;;;;;;7.43;1.77;;;;;;;;;;5018268;28;20366;-81
2023/12/18 07:39:59;;;;;;;7.57;1.60;;;;;;;;;;5019256;28;20051;-82
2023/12/18 07:42:26;;;;;;;3.95;1.42;;;;;;;;;;5000352;28;20052;-81
2023/12/18 07:44:53;;;;;;;4.88;1.20;;;;;;;;;;5017921;28;20530;-82
2023/12/18 07:47:20;;;;;;;5.65;1.30;;;;;;;;;;5015180;28;20045;-82
2023/12/18 07:49:48;;;;;;;2.85;1.00;;;;;;;;;;5014749;28;20042;-82
2023/12/18 07:52:16;;;;;;;3.60;1.15;;;;;;;;;;5016746;28;20072;-81
2023/12/18 07:54:44;;;;;;;7.75;1.27;;;;;;;;;;5001942;28;20049;-82
2023/12/18 07:57:11;;;;;;;4.88;1.05;;;;;;;;;;5014247;28;20488;-81
2023/12/18 07:59:39;;;;;;;5.50;1.40;;;;;;;;;;5012116;28;20033;-82
2023/12/18 08:02:07;;;;;;;4.32;1.10;;;;;;;;;;5017200;28;20045;-81
2023/12/18 08:04:35;;;;;;;4.55;1.45;;;;;;;;;;5017266;28;20037;-81
2023/12/18 08:07:02;;;;;;;4.40;1.17;;;;;;;;;;5034568;28;20065;-81
2023/12/18 08:09:29;;;;;;;6.30;1.40;;;;;;;;;;5034017;28;20121;-81
2023/12/18 08:11:56;;;;;;;4.38;1.20;;;;;;;;;;5014365;28;20069;-81
2023/12/18 08:14:23;;;;;;;7.15;1.58;;;;;;;;;;5014005;28;20049;-80
2023/12/18 08:16:50;;;;;;;5.97;1.10;;;;;;;;;;5043805;28;20049;-81
2023/12/18 08:19:17;;;;;;;7.47;1.40;;;;;;;;;;5020838;28;20046;-81
2023/12/18 08:21:45;;;;;;;3.88;1.17;;;;;;;;;;5031158;28;20030;-82
2023/12/18 08:24:12;;;;;;;2.38;1.20;;;;;;;;;;5021088;28;20064;-81
2023/12/18 08:26:39;;;;;;;5.90;1.40;;;;;;;;;;5021823;28;20037;-82
2023/12/18 08:29:05;;;;;;;5.90;1.52;;;;;;;;;;5037129;28;20447;-82
2023/12/18 08:31:37;;;;;;;10.75;2.00;;;;;;;;;;5021857;28;20365;-82
2023/12/18 08:34:05;;;;;;;8.88;1.95;;;;;;;;;;5037193;28;20097;-82
2023/12/18 08:36:34;;;;;;;4.38;1.58;;;;;;;;;;5037896;28;20045;-82
2023/12/18 08:39:00;;;;;;;10.05;2.08;;;;;;;;;;5037310;28;20049;-82
2023/12/18 08:41:27;;;;;;;6.75;1.52;;;;;;;;;;5021382;28;20041;-82
2023/12/18 08:43:54;;;;;;;7.32;1.60;;;;;;;;;;5037047;28;20132;-83
2023/12/18 08:46:31;;;;;;;5.97;1.77;;;;;;;;;;5038985;28;20099;-81
2023/12/18 08:48:58;;;;;;;7.22;1.38;;;;;;;;;;5020746;28;20353;-80
2023/12/18 08:51:25;;;;;;;6.65;1.90;;;;;;;;;;5037395;28;20053;-82
2023/12/18 08:53:53;;;;;;;5.75;1.58;;;;;;;;;;5037451;28;20040;-82
2023/12/18 08:56:20;;;;;;;10.50;3.20;;;;;;;;;;5037487;28;20099;-82
2023/12/18 08:58:47;;;;;;;9.85;2.17;;;;;;;;;;5037258;28;20049;-81
2023/12/18 09:01:13;;;;;;;7.47;2.42;;;;;;;;;;5020355;28;20041;-82
2023/12/18 09:03:41;;;;;;;9.60;2.65;;;;;;;;;;5020432;28;20076;-82
2023/12/18 09:06:08;;;;;;;6.03;2.17;;;;;;;;;;5054345;28;20056;-82
2023/12/18 09:08:39;;;;;;;5.25;1.70;;;;;;;;;;5055340;28;20041;-82
2023/12/18 09:11:07;;;;;;;7.50;2.85;;;;;;;;;;5036726;28;20049;-82
2023/12/18 09:13:36;;;;;;;7.03;2.60;;;;;;;;;;5055094;28;20140;-82
2023/12/18 09:16:04;;;;;;;6.82;2.70;;;;;;;;;;5020551;28;20289;-82
2023/12/18 09:18:32;;;;;;;3.58;1.40;;;;;;;;;;5019445;28;20045;-81
2023/12/18 09:21:00;;;;;;;7.70;2.67;;;;;;;;;;5020749;28;20041;-82
2023/12/18 09:23:27;;;;;;;4.57;1.92;;;;;;;;;;5019844;28;20279;-82
2023/12/18 09:25:54;;;;;;;4.25;2.15;;;;;;;;;;5020394;28;20045;-82
2023/12/18 09:28:21;;;;;;;6.72;2.58;;;;;;;;;;5019004;28;20372;-82
2023/12/18 09:30:48;;;;;;;6.10;2.25;;;;;;;;;;5020265;28;20048;-81
2023/12/18 09:33:15;;;;;;;4.35;1.70;;;;;;;;;;5036576;28;20052;-81
2023/12/18 09:35:42;;;;;;;8.82;2.65;;;;;;;;;;5019882;28;20091;-81
2023/12/18 09:38:09;;;;;;;6.55;3.20;;;;;;;;;;5018284;28;20099;-82
2023/12/18 09:40:36;;;;;;;6.53;4.50;;;;;;;;;;5018572;28;20040;-81
2023/12/18 09:43:03;;;;;;;7.57;3.20;;;;;;;;;;5019387;28;20045;-82
2023/12/18 09:45:31;;;;;;;5.70;2.57;;;;;;;;;;5035614;28;20047;-82
2023/12/18 09:47:58;;;;;;;9.30;2.50;;;;;;;;;;5023875;28;20044;-81
2023/12/18 09:50:25;;;;;;;6.53;2.05;;;;;;;;;;5019568;28;20036;-81
2023/12/18 09:53:08;;;;;;;4.97;1.90;;;;;;;;;;5054351;28;20079;-82
2023/12/18 09:55:35;;;;;;;6.80;1.52;;;;;;;;;;5005753;28;20048;-81
2023/12/18 09:58:02;;;;;;;5.22;1.80;;;;;;;;;;5019277;28;20057;-83
2023/12/18 10:00:29;;;;;;;4.18;1.60;;;;;;;;;;5035019;28;20128;-82
2023/12/18 10:02:58;;;;;;;3.75;1.60;;;;;;;;;;5019381;28;20159;-82
2023/12/18 10:05:26;;;;;;;3.92;1.30;;;;;;;;;;5017293;28;20040;-81
2023/12/18 10:07:54;;;;;;;6.50;1.80;;;;;;;;;;5034040;28;20503;-81
2023/12/18 10:10:21;;;;;;;5.43;1.20;;;;;;;;;;5034422;28;20131;-81
2023/12/18 10:12:48;;;;;;;4.50;1.17;;;;;;;;;;5019682;28;20391;-81
2023/12/18 10:15:16;;;;;;;4.82;1.02;;;;;;;;;;5019501;28;20053;-82
2023/12/18 10:17:43;;;;;;;4.72;1.27;;;;;;;;;;5036434;28;20120;-82
2023/12/18 10:20:12;;;;;;;6.40;1.30;;;;;;;;;;5035270;28;20073;-82
2023/12/18 10:22:43;;;;;;;4.68;1.42;;;;;;;;;;5019831;28;20357;-82
2023/12/18 10:25:11;;;;;;;7.03;1.85;;;;;;;;;;5018906;28;20045;-81
2023/12/18 10:27:38;;;;;;;4.57;1.20;;;;;;;;;;5019792;28;20037;-82
2023/12/18 10:30:07;;;;;;;4.07;1.00;;;;;;;;;;5018770;28;20423;-82
2023/12/18 10:32:39;;;;;;;5.00;1.30;;;;;;;;;;5035910;28;20045;-81
2023/12/18 10:35:08;;;;;;;7.30;1.23;;;;;;;;;;5035051;28;20059;-83
2023/12/18 10:37:36;;;;;;;6.28;1.10;;;;;;;;;;5019324;28;20102;-82
2023/12/18 10:40:04;;;;;;;2.78;0.90;;;;;;;;;;5034981;28;20136;-82
2023/12/18 10:42:33;;;;;;;12.32;1.42;;;;;;;;;;5035365;28;20044;-82
2023/12/18 10:45:03;;;;;;;8.35;1.40;;;;;;;;;;5019314;28;20052;-82
2023/12/18 10:47:30;;;;;;;4.97;1.02;;;;;;;;;;5035212;28;20211;-82
2023/12/18 10:50:01;;;;;;;5.80;1.30;;;;;;;;;;5019003;28;20049;-81
2023/12/18 10:52:30;;;;;;;6.68;1.42;;;;;;;;;;5035120;28;20065;-82
2023/12/18 10:55:01;;;;;;;9.75;1.05;;;;;;;;;;5018975;28;20390;-81
2023/12/18 10:57:29;;;;;;;7.40;1.30;;;;;;;;;;5018383;28;20055;-82
2023/12/18 10:59:59;;;;;;;8.02;1.45;;;;;;;;;;5018591;28;20476;-81
2023/12/18 11:02:26;;;;;;;5.22;1.20;;;;;;;;;;5018485;28;20045;-81
2023/12/18 11:04:56;;;;;;;8.27;1.23;;;;;;;;;;5052740;28;20472;-82
2023/12/18 11:07:25;;;;;;;3.50;1.10;;;;;;;;;;5034656;28;20053;-82
2023/12/18 11:09:54;;;;;;;9.63;1.30;;;;;;;;;;5015226;28;20530;-83
2023/12/18 11:12:22;;;;;;;4.63;1.30;;;;;;;;;;5015171;28;20045;-82
2023/12/18 11:15:10;;;;;;;7.22;1.60;;;;;;;;;;4999083;28;20096;-81
2023/12/18 11:18:15;;;;;;;5.30;1.10;;;;;;;;;;5015309;28;20045;-82
2023/12/18 11:20:42;;;;;;;6.43;1.35;;;;;;;;;;5016435;28;20349;-81
2023/12/18 11:23:11;;;;;;;5.18;1.02;;;;;;;;;;5016260;28;20045;-81
2023/12/18 11:25:45;;;;;;;6.80;1.25;;;;;;;;;;5018637;28;20127;-82
2023/12/18 11:28:15;;;;;;;5.38;1.60;;;;;;;;;;5034649;28;20056;-82
2023/12/18 11:30:43;;;;;;;6.75;1.70;;;;;;;;;;5018397;28;20124;-82
2023/12/18 11:33:13;;;;;;;6.88;1.30;;;;;;;;;;5034377;28;20041;-82
2023/12/18 11:35:47;;;;;;;10.27;1.90;;;;;;;;;;5018627;28;20048;-80
2023/12/18 11:38:17;;;;;;;5.95;1.48;;;;;;;;;;5017849;28;20102;-82
2023/12/18 11:40:46;;;;;;;12.52;1.80;;;;;;;;;;5018347;28;20049;-83
2023/12/18 11:43:33;;;;;;;5.75;1.80;;;;;;;;;;5017702;28;20502;-82
2023/12/18 11:46:00;;;;;;;9.38;2.22;;;;;;;;;;5018674;28;20120;-81
2023/12/18 11:48:43;;;;;;;9.02;1.45;;;;;;;;;;5020410;28;20098;-82
2023/12/18 11:51:11;;;;;;;7.75;1.90;;;;;;;;;;5002314;28;20090;-82
2023/12/18 11:53:38;;;;;;;6.30;1.57;;;;;;;;;;5023345;28;20392;-81
2023/12/18 11:56:09;;;;;;;10.05;1.67;;;;;;;;;;5021099;28;20063;-82
2023/12/18 11:58:40;;;;;;;8.70;1.40;;;;;;;;;;5022396;28;20095;-82
2023/12/18 12:01:07;;;;;;;8.52;1.40;;;;;;;;;;5027421;28;20034;-81
2023/12/18 12:03:35;;;;;;;3.97;1.67;;;;;;;;;;5013869;28;20056;-81
2023/12/18 12:06:06;;;;;;;7.63;2.05;;;;;;;;;;5014702;28;20103;-81
2023/12/18 12:08:41;;;;;;;10.77;2.00;;;;;;;;;;5017989;28;20057;-82
2023/12/18 12:11:09;;;;;;;8.18;2.42;;;;;;;;;;5017292;28;20565;-81
2023/12/18 12:13:36;;;;;;;8.40;2.20;;;;;;;;;;5032594;28;20072;-81
2023/12/18 12:16:03;;;;;;;26.98;10.95;;;;;;;;;;5028485;28;20387;-81
2023/12/18 12:18:31;;;;;;;14.95;6.93;;;;;;;;;;5018262;28;20045;-81
2023/12/18 12:20:59;;;;;;;18.48;9.57;;;;;;;;;;5017544;28;20065;-82
2023/12/18 12:23:27;;;;;;;63.38;31.05;;;;;;;;;;5004044;28;20041;-81
2023/12/18 12:25:58;;;;;;;42.47;23.15;;;;;;;;;;5020851;28;20049;-81
2023/12/18 12:28:28;;;;;;;7.68;3.63;;;;;;;;;;5021072;28;20064;-81
2023/12/18 12:30:55;;;;;;;6.95;1.90;;;;;;;;;;5056076;28;20106;-82
2023/12/18 12:33:22;;;;;;;6.43;1.73;;;;;;;;;;5004961;28;20052;-80
2023/12/18 12:35:49;;;;;;;6.50;1.63;;;;;;;;;;5021623;28;20039;-81
2023/12/18 12:38:18;;;;;;;5.50;1.40;;;;;;;;;;5021051;28;20471;-82
2023/12/18 12:40:46;;;;;;;5.20;1.40;;;;;;;;;;5021214;28;20041;-83
2023/12/18 12:43:15;;;;;;;6.78;1.17;;;;;;;;;;5020874;28;20083;-82
2023/12/18 12:45:42;;;;;;;5.13;1.70;;;;;;;;;;5021691;28;20066;-82
2023/12/18 12:48:12;;;;;;;5.93;1.83;;;;;;;;;;5004575;28;20186;-82
2023/12/18 12:50:41;;;;;;;9.35;1.73;;;;;;;;;;5021220;28;20037;-81
2023/12/18 12:53:13;;;;;;;5.00;1.10;;;;;;;;;;5021070;28;20049;-81
2023/12/18 12:55:40;;;;;;;6.53;1.42;;;;;;;;;;5037657;28;20514;-82
2023/12/18 12:58:09;;;;;;;10.05;2.00;;;;;;;;;;5025214;28;20045;-81
2023/12/18 13:00:36;;;;;;;7.35;1.63;;;;;;;;;;5007847;28;20050;-81
2023/12/18 13:03:04;;;;;;;11.57;1.50;;;;;;;;;;5001241;28;20383;-82
2023/12/18 13:05:31;;;;;;;6.43;1.85;;;;;;;;;;5026165;28;20052;-81
2023/12/18 13:07:59;;;;;;;6.90;2.15;;;;;;;;;;5005552;28;20135;-82
2023/12/18 13:10:26;;;;;;;10.30;4.15;;;;;;;;;;5006971;28;20045;-81
2023/12/18 13:12:54;;;;;;;16.70;7.60;;;;;;;;;;5001124;28;20494;-82
2023/12/18 13:15:21;;;;;;;6.82;3.10;;;;;;;;;;5015659;28;20411;-81
2023/12/18 13:17:47;;;;;;;7.80;1.80;;;;;;;;;;5001179;28;20448;-82
2023/12/18 13:20:18;;;;;;;6.38;2.30;;;;;;;;;;5000532;28;20052;-81
2023/12/18 13:22:54;;;;;;;6.80;2.92;;;;;;;;;;5035117;28;20058;-81
2023/12/18 13:25:22;;;;;;;10.00;2.00;;;;;;;;;;5036165;28;20048;-80
2023/12/18 13:27:49;;;;;;;8.80;2.85;;;;;;;;;;5037048;28;20068;-83
2023/12/18 13:30:15;;;;;;;9.05;1.67;;;;;;;;;;5019986;28;20041;-82
2023/12/18 13:32:42;;;;;;;8.25;1.20;;;;;;;;;;5020491;28;20048;-83
2023/12/18 13:35:09;;;;;;;5.57;1.17;;;;;;;;;;5036567;28;20047;-82
2023/12/18 13:37:36;;;;;;;9.10;1.58;;;;;;;;;;5036835;28;20064;-81
2023/12/18 13:40:04;;;;;;;5.72;1.30;;;;;;;;;;5036789;28;20045;-81
2023/12/18 13:42:31;;;;;;;6.95;1.20;;;;;;;;;;5020087;28;20041;-81
2023/12/18 13:44:58;;;;;;;5.63;1.50;;;;;;;;;;5036718;28;20388;-83
2023/12/18 13:47:26;;;;;;;9.82;1.70;;;;;;;;;;5019666;28;20056;-81
2023/12/18 13:49:53;;;;;;;6.78;1.27;;;;;;;;;;5019888;28;20052;-81
2023/12/18 13:52:20;;;;;;;7.97;1.65;;;;;;;;;;5036203;28;20053;-81
2023/12/18 13:54:48;;;;;;;6.88;1.27;;;;;;;;;;5036512;28;20503;-82
2023/12/18 13:57:15;;;;;;;5.78;1.20;;;;;;;;;;5015987;28;20449;-82
2023/12/18 13:59:43;;;;;;;5.90;1.38;;;;;;;;;;5000361;28;20502;-81
2023/12/18 14:02:10;;;;;;;7.32;1.33;;;;;;;;;;5016153;28;20068;-81
2023/12/18 14:04:37;;;;;;;10.63;2.40;;;;;;;;;;5016686;28;20052;-81
2023/12/18 14:07:04;;;;;;;10.90;1.92;;;;;;;;;;4999840;28;20485;-80
2023/12/18 14:09:30;;;;;;;7.10;1.48;;;;;;;;;;5019107;28;20048;-81
2023/12/18 14:11:57;;;;;;;7.85;2.08;;;;;;;;;;5019954;28;20048;-82
2023/12/18 14:14:24;;;;;;;5.72;1.33;;;;;;;;;;5036095;28;20365;-82
2023/12/18 14:16:51;;;;;;;8.20;1.63;;;;;;;;;;5036154;28;20135;-82
2023/12/18 14:19:18;;;;;;;6.05;1.95;;;;;;;;;;5019586;28;20045;-82
2023/12/18 14:21:45;;;;;;;8.23;1.80;;;;;;;;;;5036656;28;20042;-83
2023/12/18 14:24:12;;;;;;;6.68;2.10;;;;;;;;;;5018916;28;20475;-81
2023/12/18 14:26:41;;;;;;;9.82;1.70;;;;;;;;;;5020054;28;20083;-82
2023/12/18 14:29:08;;;;;;;8.98;1.70;;;;;;;;;;5018955;28;20051;-82
2023/12/18 14:31:35;;;;;;;5.88;1.70;;;;;;;;;;5019476;28;20487;-82
2023/12/18 14:34:02;;;;;;;7.50;1.50;;;;;;;;;;5019382;28;20043;-80
2023/12/18 14:36:30;;;;;;;11.77;2.20;;;;;;;;;;5019091;28;20137;-82
2023/12/18 14:38:58;;;;;;;7.70;1.70;;;;;;;;;;5019472;28;20063;-82
2023/12/18 14:41:25;;;;;;;6.75;1.90;;;;;;;;;;5018438;28;20051;-81
2023/12/18 14:43:52;;;;;;;8.05;1.92;;;;;;;;;;5035852;28;20120;-80